Ashwood, Mississippi
Current Conditions -  °F | °C
As of 2:55 PM on Tuesday 25 Nov 2014 (Local Time) from KHEZ Reporting Station
Clear Clear  
Wind Chill: 50°   Ceiling: Unl
Heat Index: 50°   Visibility: 10mi
Dew Point: 30°   Wind: 9mph
Humidity: 47%   Direction: 340°NNW
Pressure: 30.19"   Gusts: NA
Location:  31.1784°N, 91.3525°W
Report Text: KHEZ 252055Z AUTO 34008KT 10SM CLR 10/M01 A3019 RMK AO1 57017
Loading
Personal Weather Stations






























Interactive Weather Map New forecast layout! Learn more

10-Day Weather Forecast

Advertisements
Track Severe Weather on mobile